createdAt,value
2019-05-07T00:01:16.007Z,100725.54
2019-05-07T00:03:45.812Z,100722.09
2019-05-07T00:06:15.860Z,100720.04
2019-05-07T00:08:45.971Z,100721.07
2019-05-07T00:11:16.580Z,100721.07
2019-05-07T00:13:46.733Z,100726.40
2019-05-07T00:16:18.045Z,100715.70
2019-05-07T00:18:48.141Z,100715.70
2019-05-07T00:21:18.680Z,100734.21
2019-05-07T00:23:48.712Z,100734.21
2019-05-07T00:26:18.777Z,100727.87
2019-05-07T00:28:48.239Z,100727.87
2019-05-07T00:31:18.204Z,100766.70
2019-05-07T00:33:47.915Z,100766.70
2019-05-07T00:36:37.818Z,100774.66
2019-05-07T00:39:35.607Z,100772.67
2019-05-07T00:42:32.174Z,100784.82
2019-05-07T00:45:16.901Z,100784.82
2019-05-07T00:47:56.013Z,100766.03
2019-05-07T00:50:26.459Z,100752.85
2019-05-07T00:52:56.598Z,100752.85
2019-05-07T00:55:26.574Z,100746.58
2019-05-07T00:57:57.884Z,100746.58
2019-05-07T01:00:28.191Z,100748.92
2019-05-07T01:02:59.789Z,100744.95
2019-05-07T01:05:30.011Z,100751.11
2019-05-07T01:08:02.587Z,100747.78
2019-05-07T01:10:34.478Z,100747.78
2019-05-07T01:13:05.127Z,100745.95
2019-05-07T01:15:38.757Z,100748.14
2019-05-07T01:18:12.907Z,100748.14
2019-05-07T01:20:44.431Z,100753.53
2019-05-07T01:23:14.572Z,100757.92
2019-05-07T01:25:46.864Z,100757.92
2019-05-07T01:28:17.313Z,100756.34
2019-05-07T01:30:47.747Z,100746.84
2019-05-07T01:33:26.095Z,100754.19
2019-05-07T01:36:22.607Z,100739.73
2019-05-07T01:38:52.323Z,100742.34
2019-05-07T01:41:24.119Z,100739.08
2019-05-07T01:43:54.543Z,100737.52
2019-05-07T01:46:25.226Z,100737.52
2019-05-07T01:48:57.568Z,100744.45
2019-05-07T01:51:27.473Z,100737.01
2019-05-07T01:53:57.499Z,100737.55
2019-05-07T01:56:27.726Z,100745.83
2019-05-07T01:58:57.426Z,100742.75
2019-05-07T02:01:30.208Z,100738.43
2019-05-07T02:04:12.782Z,100746.20
2019-05-07T02:07:02.800Z,100747.02
2019-05-07T02:10:02.642Z,100740.91
2019-05-07T02:12:36.619Z,100746.70
2019-05-07T02:15:07.877Z,100746.70
2019-05-07T02:17:39.196Z,100751.94
2019-05-07T02:20:09.427Z,100755.38
2019-05-07T02:22:39.486Z,100755.14
2019-05-07T02:25:09.530Z,100759.48
2019-05-07T02:27:39.392Z,100759.48
2019-05-07T02:30:09.571Z,100760.43
2019-05-07T02:32:44.503Z,100760.77
2019-05-07T02:35:14.828Z,100755.51
2019-05-07T02:37:57.237Z,100759.06
2019-05-07T02:40:48.111Z,100761.73
2019-05-07T02:43:18.572Z,100765.17
2019-05-07T02:46:20.581Z,100766.59
2019-05-07T02:48:42.847Z,100758.87
2019-05-07T02:51:25.775Z,100758.87
2019-05-07T02:54:04.781Z,100763.16
2019-05-07T02:56:34.904Z,100763.16
2019-05-07T02:59:06.409Z,100760.06
2019-05-07T03:01:36.316Z,100760.06
2019-05-07T03:04:06.194Z,100766.95
2019-05-07T03:06:35.798Z,100753.70
2019-05-07T03:09:07.515Z,100768.43
2019-05-07T03:11:37.201Z,100768.43
2019-05-07T03:14:06.941Z,100766.75
2019-05-07T03:16:43.638Z,100767.65
2019-05-07T03:19:09.496Z,100769.31
2019-05-07T03:21:55.607Z,100769.73
2019-05-07T03:24:52.950Z,100767.59
2019-05-07T03:27:23.641Z,100768.34
2019-05-07T03:30:18.334Z,100768.75
2019-05-07T03:32:58.152Z,100770.08
2019-05-07T03:35:45.845Z,100768.34
2019-05-07T03:38:14.091Z,100778.38
2019-05-07T03:40:44.986Z,100779.80
2019-05-07T03:43:14.742Z,100775.06
2019-05-07T03:46:06.524Z,100771.27
2019-05-07T03:48:36.726Z,100771.27
2019-05-07T03:51:06.434Z,100779.17
2019-05-07T03:53:36.622Z,100769.28
2019-05-07T03:56:06.195Z,100769.28
2019-05-07T03:58:36.327Z,100776.63
2019-05-07T04:01:07.438Z,100780.45
2019-05-07T04:03:37.010Z,100780.45
2019-05-07T04:06:07.064Z,100783.24
2019-05-07T04:08:36.897Z,100789.84
2019-05-07T04:11:06.513Z,100777.56
2019-05-07T04:13:36.339Z,100777.56
2019-05-07T04:16:08.725Z,100780.68
2019-05-07T04:18:38.853Z,100784.20
2019-05-07T04:21:08.716Z,100791.02
2019-05-07T04:23:39.007Z,100784.91
2019-05-07T04:26:34.815Z,100784.91
2019-05-07T04:29:07.309Z,100784.95
2019-05-07T04:31:43.703Z,100786.56
2019-05-07T04:34:23.730Z,100785.44
2019-05-07T04:36:54.214Z,100774.63
2019-05-07T04:39:24.199Z,100779.50
2019-05-07T04:41:56.013Z,100778.23
2019-05-07T04:44:25.594Z,100771.30
2019-05-07T04:46:55.309Z,100772.66
2019-05-07T04:49:25.478Z,100777.45
2019-05-07T04:52:03.886Z,100773.02
2019-05-07T04:54:33.237Z,100773.02
2019-05-07T04:57:03.714Z,100775.70
2019-05-07T04:59:35.195Z,100781.23
2019-05-07T05:02:18.120Z,100781.23
2019-05-07T05:04:48.529Z,100782.22
2019-05-07T05:07:22.321Z,100782.22
2019-05-07T05:09:54.318Z,100779.60
2019-05-07T05:12:24.014Z,100776.61
2019-05-07T05:14:53.836Z,100781.38
2019-05-07T05:17:23.973Z,100781.38
2019-05-07T05:19:55.734Z,100782.87
2019-05-07T05:22:47.401Z,100782.87
2019-05-07T05:25:32.300Z,100778.20
2019-05-07T05:28:02.133Z,100778.61
2019-05-07T05:30:42.449Z,100783.89
2019-05-07T05:33:12.760Z,100780.85
2019-05-07T05:35:43.347Z,100785.70
2019-05-07T05:38:13.708Z,100782.16
2019-05-07T05:40:44.038Z,100781.78
2019-05-07T05:43:31.780Z,100785.66
2019-05-07T05:46:02.813Z,100780.05
2019-05-07T05:48:33.396Z,100785.41
2019-05-07T05:51:22.867Z,100785.41
2019-05-07T05:54:03.372Z,100781.06
2019-05-07T05:56:58.125Z,100785.83
2019-05-07T05:59:55.480Z,100785.83
2019-05-07T06:02:47.568Z,100782.91
2019-05-07T06:05:34.818Z,100785.53
2019-05-07T06:08:17.678Z,100786.42
2019-05-07T06:11:04.061Z,100784.77
2019-05-07T06:13:57.090Z,100791.77
2019-05-07T06:16:32.759Z,100788.27
2019-05-07T06:19:24.117Z,100788.27
2019-05-07T06:22:02.184Z,100789.19
2019-05-07T06:24:42.674Z,100789.19
2019-05-07T06:27:12.838Z,100794.03
2019-05-07T06:29:45.329Z,100800.65
2019-05-07T06:32:19.339Z,100800.65
2019-05-07T06:34:49.027Z,100806.27
2019-05-07T06:37:19.074Z,100806.27
2019-05-07T06:40:02.620Z,100805.77
2019-05-07T06:43:03.129Z,100817.20
2019-05-07T06:45:36.834Z,100815.61
2019-05-07T06:48:06.555Z,100816.08
2019-05-07T06:50:36.952Z,100821.73
2019-05-07T06:53:06.820Z,100828.38
2019-05-07T06:55:36.471Z,100821.11
2019-05-07T06:58:08.317Z,100820.37
2019-05-07T07:00:56.879Z,100821.87
2019-05-07T07:03:53.130Z,100823.17
2019-05-07T07:06:27.307Z,100820.42
2019-05-07T07:09:19.636Z,100821.47
2019-05-07T07:11:54.633Z,100825.31
2019-05-07T07:14:26.171Z,100822.29
2019-05-07T07:16:55.986Z,100825.23
2019-05-07T07:19:26.853Z,100820.19
2019-05-07T07:21:57.176Z,100820.19
2019-05-07T07:24:27.343Z,100815.41
2019-05-07T07:26:59.584Z,100818.92
2019-05-07T07:29:32.515Z,100816.77
2019-05-07T07:32:04.677Z,100818.86
2019-05-07T07:34:43.396Z,100811.09
2019-05-07T07:37:28.916Z,100804.21
2019-05-07T07:40:16.701Z,100805.48
2019-05-07T07:42:46.866Z,100803.30
2019-05-07T07:45:18.496Z,100804.20
2019-05-07T07:47:48.847Z,100812.45
2019-05-07T07:50:22.414Z,100805.98
2019-05-07T07:52:53.298Z,100796.03
2019-05-07T07:55:33.025Z,100796.03
2019-05-07T07:58:31.643Z,100785.95
2019-05-07T08:01:19.438Z,100779.25
2019-05-07T08:03:49.530Z,100779.84
2019-05-07T08:06:19.311Z,100797.48
2019-05-07T08:08:49.156Z,100815.33
2019-05-07T08:11:18.956Z,100827.99
2019-05-07T08:13:52.894Z,100830.22
2019-05-07T08:16:24.423Z,100841.41
2019-05-07T08:18:54.200Z,100853.33
2019-05-07T08:21:25.133Z,100845.11
2019-05-07T08:23:55.059Z,100851.95
2019-05-07T08:26:26.127Z,100850.43
2019-05-07T08:28:56.072Z,100855.38
2019-05-07T08:31:38.033Z,100857.81
2019-05-07T08:34:25.869Z,100851.02
2019-05-07T08:36:55.924Z,100859.77
2019-05-07T08:39:25.543Z,100860.89
2019-05-07T08:41:56.036Z,100857.31
2019-05-07T08:44:34.355Z,100852.16
2019-05-07T08:47:22.951Z,100852.16
2019-05-07T08:49:53.333Z,100857.28
2019-05-07T08:52:25.877Z,100851.89
2019-05-07T08:54:54.793Z,100855.48
2019-05-07T08:57:25.104Z,100851.33
2019-05-07T09:00:00.302Z,100839.12
2019-05-07T09:02:28.202Z,100847.00
2019-05-07T09:04:58.987Z,100849.36
2019-05-07T09:07:29.036Z,100849.36
2019-05-07T09:10:02.518Z,100847.00
2019-05-07T09:12:32.476Z,100836.55
2019-05-07T09:15:02.593Z,100839.32
2019-05-07T09:17:32.241Z,100829.73
2019-05-07T09:20:04.259Z,100829.73
2019-05-07T09:22:34.645Z,100839.35
2019-05-07T09:25:04.688Z,100844.59
2019-05-07T09:27:42.333Z,100841.16
2019-05-07T09:30:46.349Z,100843.78
2019-05-07T09:33:32.022Z,100836.78
2019-05-07T09:36:02.350Z,100846.00
2019-05-07T09:38:32.943Z,100842.02
2019-05-07T09:41:05.174Z,100852.98
2019-05-07T09:43:35.811Z,100849.02
2019-05-07T09:46:05.485Z,100846.86
2019-05-07T09:48:36.998Z,100845.53
2019-05-07T09:51:06.771Z,100851.25
2019-05-07T09:53:38.823Z,100849.04
2019-05-07T09:56:09.735Z,100844.63
2019-05-07T09:58:39.398Z,100849.41
2019-05-07T10:01:09.291Z,100854.30
2019-05-07T10:03:39.349Z,100855.19
2019-05-07T10:06:12.418Z,100838.53
2019-05-07T10:08:42.503Z,100849.02
2019-05-07T10:11:14.030Z,100859.51
2019-05-07T10:13:56.027Z,100848.95
2019-05-07T10:16:34.953Z,100844.65
2019-05-07T10:19:05.226Z,100853.41
2019-05-07T10:21:35.012Z,100855.97
2019-05-07T10:24:05.458Z,100854.30
2019-05-07T10:26:40.069Z,100842.74
2019-05-07T10:29:12.476Z,100857.74
2019-05-07T10:31:42.395Z,100858.17
2019-05-07T10:34:12.679Z,100874.39
2019-05-07T10:36:42.346Z,100865.64
2019-05-07T10:39:12.927Z,100864.73
2019-05-07T10:41:43.122Z,100867.29
2019-05-07T10:44:14.320Z,100862.81
2019-05-07T10:47:03.233Z,100867.19
2019-05-07T10:49:46.998Z,100881.46
2019-05-07T10:52:16.804Z,100878.75
2019-05-07T10:54:59.474Z,100871.84
2019-05-07T10:57:18.571Z,100882.79
2019-05-07T10:59:48.206Z,100882.36
2019-05-07T11:02:23.041Z,100882.78
2019-05-07T11:04:53.291Z,100882.77
2019-05-07T11:07:22.855Z,100886.72
2019-05-07T11:09:52.857Z,100881.45
2019-05-07T11:12:22.908Z,100886.70
2019-05-07T11:14:52.671Z,100883.62
2019-05-07T11:17:38.348Z,100890.21
2019-05-07T11:20:08.322Z,100891.97
2019-05-07T11:22:38.032Z,100893.72
2019-05-07T11:25:12.087Z,100883.16
2019-05-07T11:27:42.269Z,100901.63
2019-05-07T11:30:13.110Z,100892.44
2019-05-07T11:32:43.050Z,100906.83
2019-05-07T11:35:14.790Z,100900.73
2019-05-07T11:37:45.304Z,100903.38
2019-05-07T11:40:20.067Z,100908.59
2019-05-07T11:43:13.074Z,100908.59
2019-05-07T11:46:02.043Z,100907.73
2019-05-07T11:48:36.220Z,100914.75
2019-05-07T11:51:33.431Z,100919.14
2019-05-07T11:54:13.941Z,100915.59
2019-05-07T11:56:43.922Z,100900.92
2019-05-07T11:59:13.743Z,100905.24
2019-05-07T12:01:52.609Z,100808.70
2019-05-07T12:04:23.384Z,100921.69
2019-05-07T12:06:54.685Z,100915.56
2019-05-07T12:09:24.864Z,100919.92
2019-05-07T12:11:54.739Z,100921.75
2019-05-07T12:14:32.567Z,100937.05
2019-05-07T12:17:02.562Z,100927.02
2019-05-07T12:19:37.771Z,100926.95
2019-05-07T12:22:09.290Z,100934.91
2019-05-07T12:24:41.862Z,100946.26
2019-05-07T12:27:11.984Z,100937.46
2019-05-07T12:29:42.391Z,100938.36
2019-05-07T12:32:26.815Z,100939.64
2019-05-07T12:35:02.298Z,100934.88
2019-05-07T12:37:32.188Z,100945.34
2019-05-07T12:40:07.332Z,100852.80
2019-05-07T12:42:37.309Z,100933.95
2019-05-07T12:45:07.340Z,100931.69
2019-05-07T12:47:37.117Z,100935.26
2019-05-07T12:50:06.886Z,100935.17
2019-05-07T12:52:50.057Z,100941.33
2019-05-07T12:55:26.116Z,100935.20
2019-05-07T12:57:56.050Z,100937.48
2019-05-07T13:00:52.884Z,100940.14
2019-05-07T13:03:44.855Z,100948.03
2019-05-07T13:06:14.489Z,100944.58
2019-05-07T13:08:45.187Z,100942.82
2019-05-07T13:11:15.231Z,100942.36
2019-05-07T13:13:44.803Z,100945.44
2019-05-07T13:16:14.440Z,100940.14
2019-05-07T13:18:44.386Z,100930.05
2019-05-07T13:21:14.700Z,100933.08
2019-05-07T13:23:44.632Z,100938.24
2019-05-07T13:26:14.592Z,100933.03
2019-05-07T13:28:44.763Z,100940.97
2019-05-07T13:31:17.868Z,100941.78
2019-05-07T13:33:49.281Z,100939.42
2019-05-07T13:36:19.513Z,100947.10
2019-05-07T13:39:08.715Z,100955.41
2019-05-07T13:42:02.082Z,100948.75
2019-05-07T13:44:52.071Z,100947.88
2019-05-07T13:47:42.919Z,100958.54
2019-05-07T13:50:12.947Z,100954.17
2019-05-07T13:52:43.449Z,100954.63
2019-05-07T13:55:15.148Z,100966.02
2019-05-07T13:57:45.010Z,100961.67
2019-05-07T14:00:22.810Z,100963.83
2019-05-07T14:02:54.916Z,100961.63
2019-05-07T14:05:24.838Z,100954.55
2019-05-07T14:07:58.207Z,100958.95
2019-05-07T14:10:28.850Z,100970.83
2019-05-07T14:13:09.512Z,100963.80
2019-05-07T14:15:32.169Z,100962.91
2019-05-07T14:18:02.703Z,100960.32
2019-05-07T14:20:33.159Z,100957.64
2019-05-07T14:23:03.354Z,100953.59
2019-05-07T14:25:38.004Z,100956.58
2019-05-07T14:28:07.745Z,100962.30
2019-05-07T14:30:38.145Z,100953.14
2019-05-07T14:33:15.514Z,100960.23
2019-05-07T14:35:53.984Z,100956.56
2019-05-07T14:38:28.571Z,100955.91
2019-05-07T14:41:00.166Z,100963.80
2019-05-07T14:43:52.220Z,100955.78
2019-05-07T14:46:40.603Z,100968.17
2019-05-07T14:48:59.132Z,100961.45
2019-05-07T14:51:28.768Z,100956.44
2019-05-07T14:54:01.791Z,100957.45
2019-05-07T14:56:32.616Z,100952.27
2019-05-07T14:59:05.261Z,100967.09
2019-05-07T15:01:35.592Z,100964.42
2019-05-07T15:04:07.099Z,100964.28
2019-05-07T15:06:37.399Z,100963.48
2019-05-07T15:09:08.663Z,100963.52
2019-05-07T15:11:38.249Z,100973.22
2019-05-07T15:14:07.971Z,100959.45
2019-05-07T15:16:38.076Z,100967.88
2019-05-07T15:19:07.729Z,100964.74
2019-05-07T15:21:37.534Z,100964.45
2019-05-07T15:24:07.722Z,100969.47
2019-05-07T15:26:41.941Z,100960.72
2019-05-07T15:29:14.965Z,100962.95
2019-05-07T15:32:00.726Z,100962.52
2019-05-07T15:34:32.772Z,100952.37
2019-05-07T15:37:02.918Z,100959.37
2019-05-07T15:39:32.938Z,100968.99
2019-05-07T15:42:06.759Z,100953.19
2019-05-07T15:44:36.597Z,100953.23
2019-05-07T15:47:11.748Z,100954.09
2019-05-07T15:49:42.377Z,100950.64
2019-05-07T15:52:18.316Z,100969.06
2019-05-07T15:54:48.530Z,100958.95
2019-05-07T15:57:23.618Z,100961.19
2019-05-07T16:00:05.108Z,100947.58
2019-05-07T16:02:37.681Z,100968.27
2019-05-07T16:05:07.756Z,100962.11
2019-05-07T16:07:38.163Z,100956.42
2019-05-07T16:10:08.606Z,100950.67
2019-05-07T16:12:38.570Z,100957.73
2019-05-07T16:15:08.388Z,100954.19
2019-05-07T16:17:42.854Z,100952.37
2019-05-07T16:20:14.264Z,100953.25
2019-05-07T16:22:47.581Z,100951.58
2019-05-07T16:25:17.243Z,100962.98
2019-05-07T16:27:46.905Z,100955.11
2019-05-07T16:30:17.210Z,100955.97
2019-05-07T16:32:46.784Z,100955.97
2019-05-07T16:35:16.821Z,100964.74
2019-05-07T16:37:46.614Z,100955.09
2019-05-07T16:40:17.393Z,100955.09
2019-05-07T16:42:47.325Z,100956.86
2019-05-07T16:45:18.433Z,100963.84
2019-05-07T16:47:48.164Z,100963.85
2019-05-07T16:50:18.583Z,100977.81
2019-05-07T16:52:48.140Z,100972.55
2019-05-07T16:55:22.395Z,100963.44
2019-05-07T16:58:06.555Z,100962.94
2019-05-07T17:00:42.405Z,100960.36
2019-05-07T17:03:15.841Z,100949.83
2019-05-07T17:05:45.719Z,100949.83
2019-05-07T17:08:31.749Z,100971.69
2019-05-07T17:11:04.051Z,100958.53
2019-05-07T17:13:33.874Z,100967.25
2019-05-07T17:16:05.163Z,100974.23
2019-05-07T17:18:34.732Z,100962.83
2019-05-07T17:21:04.963Z,100968.14
2019-05-07T17:23:44.249Z,100967.27
2019-05-07T17:26:06.108Z,100965.52
2019-05-07T17:28:36.564Z,100962.87
2019-05-07T17:31:08.408Z,100973.82
2019-05-07T17:33:38.640Z,100966.81
2019-05-07T17:36:08.574Z,100976.91
2019-05-07T17:38:38.366Z,100974.71
2019-05-07T17:41:13.624Z,100974.71
2019-05-07T17:43:40.706Z,100983.80
2019-05-07T17:46:12.284Z,100972.89
2019-05-07T17:48:42.803Z,100979.37
2019-05-07T17:51:34.658Z,100979.44
2019-05-07T17:54:05.327Z,100964.59
2019-05-07T17:56:35.193Z,100969.00
2019-05-07T17:59:04.965Z,100963.72
2019-05-07T18:01:53.117Z,100970.73
2019-05-07T18:04:25.856Z,100975.48
2019-05-07T18:06:56.329Z,100970.57
2019-05-07T18:09:26.012Z,100981.00
2019-05-07T18:11:56.176Z,100986.24
2019-05-07T18:14:25.874Z,100982.67
2019-05-07T18:17:04.175Z,100986.09
2019-05-07T18:19:34.276Z,100974.24
2019-05-07T18:22:04.136Z,100979.59
2019-05-07T18:24:34.359Z,100976.99
2019-05-07T18:27:05.992Z,100974.75
2019-05-07T18:29:37.177Z,100988.34
2019-05-07T18:32:08.171Z,100983.93
2019-05-07T18:34:38.477Z,100974.25
2019-05-07T18:37:08.400Z,100979.55
2019-05-07T18:39:39.305Z,100975.64
2019-05-07T18:42:08.958Z,100981.63
2019-05-07T18:44:38.940Z,100973.01
2019-05-07T18:47:12.758Z,100973.01
2019-05-07T18:49:44.722Z,100982.62
2019-05-07T18:52:13.804Z,100985.27
2019-05-07T18:54:43.497Z,100985.27
2019-05-07T18:57:13.311Z,100986.16
2019-05-07T18:59:43.420Z,100988.75
2019-05-07T19:02:13.185Z,100978.16
2019-05-07T19:04:43.403Z,100979.89
2019-05-07T19:07:16.776Z,100979.89
2019-05-07T19:09:47.846Z,100983.31
2019-05-07T19:12:17.781Z,100983.31
2019-05-07T19:14:47.994Z,100996.03
2019-05-07T19:17:17.730Z,100993.78
2019-05-07T19:19:49.357Z,100989.42
2019-05-07T19:22:19.319Z,100989.42
2019-05-07T19:24:49.187Z,100988.96
2019-05-07T19:27:19.329Z,100996.00
2019-05-07T19:29:49.209Z,100997.34
2019-05-07T19:32:22.842Z,100997.34
2019-05-07T19:34:58.115Z,100994.77
2019-05-07T19:37:28.512Z,100993.92
2019-05-07T19:39:58.721Z,100994.34
2019-05-07T19:42:33.396Z,100994.34
2019-05-07T19:45:03.675Z,100988.12
2019-05-07T19:47:33.702Z,100992.92
2019-05-07T19:50:04.008Z,100990.33
2019-05-07T19:52:35.333Z,100999.96
2019-05-07T19:55:05.205Z,100996.43
2019-05-07T19:57:42.529Z,100993.78
2019-05-07T20:00:12.878Z,100988.50
2019-05-07T20:02:46.131Z,101001.94
2019-05-07T20:05:17.398Z,101001.94
2019-05-07T20:07:47.556Z,100999.64
2019-05-07T20:10:23.386Z,100995.78
2019-05-07T20:12:55.636Z,100995.78
2019-05-07T20:15:25.168Z,101004.98
2019-05-07T20:17:57.913Z,101003.68
2019-05-07T20:20:27.881Z,101008.39
2019-05-07T20:23:02.633Z,101010.13
2019-05-07T20:25:34.505Z,100891.19
2019-05-07T20:28:04.563Z,101005.63
2019-05-07T20:30:37.600Z,101005.63
2019-05-07T20:33:07.476Z,101017.92
2019-05-07T20:35:41.036Z,101019.69
2019-05-07T20:38:09.357Z,101020.58
2019-05-07T20:40:39.341Z,101010.83
2019-05-07T20:43:12.489Z,101016.95
2019-05-07T20:45:42.577Z,101020.16
2019-05-07T20:48:12.572Z,101014.48
2019-05-07T20:50:42.454Z,101007.47
2019-05-07T20:53:12.527Z,101025.39
2019-05-07T20:55:52.994Z,101016.53
2019-05-07T20:58:24.177Z,101019.69
2019-05-07T21:00:54.902Z,101028.33
2019-05-07T21:03:24.939Z,101020.39
2019-05-07T21:05:58.680Z,101023.05
2019-05-07T21:08:28.846Z,101021.70
2019-05-07T21:11:02.364Z,101018.11
2019-05-07T21:13:34.841Z,101018.41
2019-05-07T21:16:03.706Z,101018.41
2019-05-07T21:18:33.265Z,101028.17
2019-05-07T21:21:02.894Z,101028.17
2019-05-07T21:23:33.070Z,101025.59
2019-05-07T21:26:03.056Z,101017.30
2019-05-07T21:28:33.403Z,101020.34
2019-05-07T21:31:03.656Z,101019.42
2019-05-07T21:33:33.955Z,101016.42
2019-05-07T21:36:03.813Z,101016.25
2019-05-07T21:38:34.222Z,101028.00
2019-05-07T21:41:03.801Z,101028.00
2019-05-07T21:43:34.644Z,101032.43
2019-05-07T21:46:04.823Z,101028.00
2019-05-07T21:48:34.537Z,101025.42
2019-05-07T21:51:04.491Z,101024.91
2019-05-07T21:53:40.279Z,101026.27
2019-05-07T21:56:34.792Z,101024.95
2019-05-07T21:59:13.859Z,101026.22
2019-05-07T22:01:52.488Z,101022.80
2019-05-07T22:04:23.823Z,101027.28
2019-05-07T22:06:53.711Z,101030.79
2019-05-07T22:09:23.882Z,101024.70
2019-05-07T22:11:54.244Z,101024.70
2019-05-07T22:14:26.407Z,101021.53
2019-05-07T22:16:56.080Z,101030.79
2019-05-07T22:19:26.357Z,101028.05
2019-05-07T22:21:56.757Z,101033.41
2019-05-07T22:24:29.606Z,101029.90
2019-05-07T22:27:04.417Z,101023.86
2019-05-07T22:29:34.461Z,101033.45
2019-05-07T22:32:26.508Z,101030.87
2019-05-07T22:35:15.271Z,101030.87
2019-05-07T22:37:45.212Z,101024.74
2019-05-07T22:40:15.473Z,101024.53
2019-05-07T22:42:46.716Z,101024.53
2019-05-07T22:45:17.646Z,101029.69
2019-05-07T22:47:47.885Z,101023.66
2019-05-07T22:50:19.909Z,101024.16
2019-05-07T22:52:54.199Z,101024.95
2019-05-07T22:55:22.536Z,101018.41
2019-05-07T22:58:04.910Z,101020.14
2019-05-07T23:00:45.350Z,101024.06
2019-05-07T23:03:16.182Z,101024.45
2019-05-07T23:05:47.097Z,101018.80
2019-05-07T23:08:16.806Z,101023.56
2019-05-07T23:10:48.753Z,101022.30
2019-05-07T23:13:23.273Z,101022.30
2019-05-07T23:15:53.873Z,101021.64
2019-05-07T23:18:23.751Z,101021.64
2019-05-07T23:20:53.679Z,100896.95
2019-05-07T23:23:23.894Z,101020.43
2019-05-07T23:25:56.494Z,101020.80
2019-05-07T23:28:26.884Z,101019.02
2019-05-07T23:30:57.375Z,101017.39
2019-05-07T23:33:27.626Z,101017.39
2019-05-07T23:35:58.827Z,101022.63
2019-05-07T23:38:31.895Z,101013.97
2019-05-07T23:41:15.001Z,101014.73
2019-05-07T23:44:03.830Z,101016.41
2019-05-07T23:46:34.510Z,100990.52
2019-05-07T23:49:04.329Z,101018.62
2019-05-07T23:51:34.308Z,101012.86
2019-05-07T23:54:04.179Z,101011.50
2019-05-07T23:56:34.367Z,101017.25
2019-05-07T23:59:06.695Z,101015.52
